sensor_id;sensor_type;location;lat;lon;timestamp;pressure;altitude;pressure_sealevel;temperature;humidity
46223;BME280;31943;51.410;7.564;2022-07-04T00:01:51;100623.31;;;17.95;51.07
46223;BME280;31943;51.410;7.564;2022-07-04T00:04:17;100613.69;;;17.91;51.36
46223;BME280;31943;51.410;7.564;2022-07-04T00:06:44;100613.78;;;17.85;51.15
46223;BME280;31943;51.410;7.564;2022-07-04T00:09:09;100615.53;;;17.83;51.27
46223;BME280;31943;51.410;7.564;2022-07-04T00:11:35;100611.22;;;17.77;51.02
46223;BME280;31943;51.410;7.564;2022-07-04T00:14:00;100617.41;;;17.74;51.18
46223;BME280;31943;51.410;7.564;2022-07-04T00:16:26;100611.34;;;17.68;51.63
46223;BME280;31943;51.410;7.564;2022-07-04T00:18:52;100612.31;;;17.62;51.40
46223;BME280;31943;51.410;7.564;2022-07-04T00:21:18;100616.78;;;17.54;51.51
46223;BME280;31943;51.410;7.564;2022-07-04T00:23:45;100613.38;;;17.47;51.39
46223;BME280;31943;51.410;7.564;2022-07-04T00:26:10;100614.25;;;17.46;51.74
46223;BME280;31943;51.410;7.564;2022-07-04T00:28:36;100605.53;;;17.43;51.84
46223;BME280;31943;51.410;7.564;2022-07-04T00:31:02;100601.97;;;17.44;51.86
46223;BME280;31943;51.410;7.564;2022-07-04T00:33:27;100608.19;;;17.41;51.87
46223;BME280;31943;51.410;7.564;2022-07-04T00:35:53;100600.25;;;17.41;51.62
46223;BME280;31943;51.410;7.564;2022-07-04T00:38:19;100604.69;;;17.37;51.61
46223;BME280;31943;51.410;7.564;2022-07-04T00:40:46;100602.16;;;17.31;51.78
46223;BME280;31943;51.410;7.564;2022-07-04T00:43:11;100609.22;;;17.26;51.74
46223;BME280;31943;51.410;7.564;2022-07-04T00:45:37;100603.97;;;17.25;51.91
46223;BME280;31943;51.410;7.564;2022-07-04T00:48:03;100603.16;;;17.21;51.86
46223;BME280;31943;51.410;7.564;2022-07-04T00:50:28;100606.69;;;17.17;51.84
46223;BME280;31943;51.410;7.564;2022-07-04T00:52:54;100597.06;;;17.14;51.95
46223;BME280;31943;51.410;7.564;2022-07-04T00:55:22;100596.22;;;17.11;51.95
46223;BME280;31943;51.410;7.564;2022-07-04T00:57:49;100598.91;;;17.08;51.91
46223;BME280;31943;51.410;7.564;2022-07-04T01:00:16;100591.00;;;17.06;52.11
46223;BME280;31943;51.410;7.564;2022-07-04T01:02:42;100594.50;;;17.08;52.08
46223;BME280;31943;51.410;7.564;2022-07-04T01:05:08;100597.13;;;17.08;51.95
46223;BME280;31943;51.410;7.564;2022-07-04T01:07:35;100603.25;;;17.10;51.98
46223;BME280;31943;51.410;7.564;2022-07-04T01:10:02;100602.38;;;17.11;52.04
46223;BME280;31943;51.410;7.564;2022-07-04T01:12:28;100612.06;;;17.09;51.93
46223;BME280;31943;51.410;7.564;2022-07-04T01:14:56;100609.44;;;17.09;51.90
46223;BME280;31943;51.410;7.564;2022-07-04T01:17:22;100602.41;;;17.05;51.73
46223;BME280;31943;51.410;7.564;2022-07-04T01:19:48;100601.56;;;17.03;51.92
46223;BME280;31943;51.410;7.564;2022-07-04T01:22:15;100600.72;;;17.01;51.86
46223;BME280;31943;51.410;7.564;2022-07-04T01:24:41;100600.78;;;16.96;51.84
46223;BME280;31943;51.410;7.564;2022-07-04T01:27:07;100601.69;;;16.94;52.00
46223;BME280;31943;51.410;7.564;2022-07-04T01:29:33;100599.06;;;16.91;51.88
46223;BME280;31943;51.410;7.564;2022-07-04T01:32:03;100594.72;;;16.85;51.96
46223;BME280;31943;51.410;7.564;2022-07-04T01:34:29;100593.91;;;16.78;52.23
46223;BME280;31943;51.410;7.564;2022-07-04T01:36:54;100594.81;;;16.74;52.40
46223;BME280;31943;51.410;7.564;2022-07-04T01:39:21;100586.97;;;16.68;52.40
46223;BME280;31943;51.410;7.564;2022-07-04T01:41:47;100588.78;;;16.60;52.40
46223;BME280;31943;51.410;7.564;2022-07-04T01:44:13;100589.75;;;16.53;52.81
46223;BME280;31943;51.410;7.564;2022-07-04T01:46:38;100586.28;;;16.46;52.44
46223;BME280;31943;51.410;7.564;2022-07-04T01:49:04;100590.75;;;16.39;52.72
46223;BME280;31943;51.410;7.564;2022-07-04T01:51:30;100594.28;;;16.35;52.98
46223;BME280;31943;51.410;7.564;2022-07-04T01:53:55;100598.66;;;16.36;52.91
46223;BME280;31943;51.410;7.564;2022-07-04T01:56:22;100594.28;;;16.34;52.94
46223;BME280;31943;51.410;7.564;2022-07-04T01:58:48;100597.84;;;16.31;53.00
46223;BME280;31943;51.410;7.564;2022-07-04T02:01:14;100595.25;;;16.22;53.02
46223;BME280;31943;51.410;7.564;2022-07-04T02:03:40;100596.19;;;16.15;53.11
46223;BME280;31943;51.410;7.564;2022-07-04T02:06:05;100608.53;;;16.11;53.55
46223;BME280;31943;51.410;7.564;2022-07-04T02:08:31;100610.28;;;16.09;53.46
46223;BME280;31943;51.410;7.564;2022-07-04T02:10:57;100612.94;;;16.06;53.55
46223;BME280;31943;51.410;7.564;2022-07-04T02:13:24;100611.22;;;16.02;54.04
46223;BME280;31943;51.410;7.564;2022-07-04T02:15:49;100611.22;;;16.00;53.81
46223;BME280;31943;51.410;7.564;2022-07-04T02:18:15;100609.47;;;15.99;53.64
46223;BME280;31943;51.410;7.564;2022-07-04T02:20:41;100605.94;;;15.99;53.75
46223;BME280;31943;51.410;7.564;2022-07-04T02:23:06;100617.38;;;15.96;53.85
46223;BME280;31943;51.410;7.564;2022-07-04T02:25:32;100614.75;;;15.93;53.85
46223;BME280;31943;51.410;7.564;2022-07-04T02:27:57;100615.66;;;15.94;53.98
46223;BME280;31943;51.410;7.564;2022-07-04T02:30:25;100620.03;;;15.93;53.89
46223;BME280;31943;51.410;7.564;2022-07-04T02:32:51;100618.28;;;15.94;54.11
46223;BME280;31943;51.410;7.564;2022-07-04T02:35:16;100619.16;;;15.96;54.30
46223;BME280;31943;51.410;7.564;2022-07-04T02:37:42;100618.25;;;15.95;54.65
46223;BME280;31943;51.410;7.564;2022-07-04T02:40:08;100630.59;;;15.92;54.77
46223;BME280;31943;51.410;7.564;2022-07-04T02:42:35;100629.72;;;15.90;54.56
46223;BME280;31943;51.410;7.564;2022-07-04T02:45:02;100629.72;;;15.87;54.81
46223;BME280;31943;51.410;7.564;2022-07-04T02:47:29;100633.25;;;15.82;54.70
46223;BME280;31943;51.410;7.564;2022-07-04T02:49:54;100627.13;;;15.79;54.66
46223;BME280;31943;51.410;7.564;2022-07-04T02:52:20;100633.28;;;15.76;55.14
46223;BME280;31943;51.410;7.564;2022-07-04T02:54:46;100637.69;;;15.73;54.84
46223;BME280;31943;51.410;7.564;2022-07-04T02:57:12;100649.94;;;15.68;54.77
46223;BME280;31943;51.410;7.564;2022-07-04T02:59:37;100648.22;;;15.62;55.22
46223;BME280;31943;51.410;7.564;2022-07-04T03:02:03;100650.00;;;15.58;55.00
46223;BME280;31943;51.410;7.564;2022-07-04T03:04:31;100648.25;;;15.60;55.27
46223;BME280;31943;51.410;7.564;2022-07-04T03:06:56;100648.25;;;15.57;55.38
46223;BME280;31943;51.410;7.564;2022-07-04T03:09:22;100646.50;;;15.56;55.28
46223;BME280;31943;51.410;7.564;2022-07-04T03:11:48;100661.41;;;15.56;55.57
46223;BME280;31943;51.410;7.564;2022-07-04T03:14:13;100663.16;;;15.55;55.23
46223;BME280;31943;51.410;7.564;2022-07-04T03:16:39;100675.41;;;15.58;55.39
46223;BME280;31943;51.410;7.564;2022-07-04T03:19:05;100678.91;;;15.63;55.43
46223;BME280;31943;51.410;7.564;2022-07-04T03:21:33;100676.28;;;15.61;55.25
46223;BME280;31943;51.410;7.564;2022-07-04T03:23:58;100679.81;;;15.57;55.76
46223;BME280;31943;51.410;7.564;2022-07-04T03:26:24;100673.69;;;15.55;55.57
46223;BME280;31943;51.410;7.564;2022-07-04T03:28:50;100678.94;;;15.54;56.10
46223;BME280;31943;51.410;7.564;2022-07-04T03:31:16;100688.59;;;15.52;55.97
46223;BME280;31943;51.410;7.564;2022-07-04T03:33:42;100692.09;;;15.55;56.00
46223;BME280;31943;51.410;7.564;2022-07-04T03:36:07;100687.69;;;15.59;55.67
46223;BME280;31943;51.410;7.564;2022-07-04T03:38:34;100686.81;;;15.61;55.77
46223;BME280;31943;51.410;7.564;2022-07-04T03:41:00;100695.56;;;15.63;55.76
46223;BME280;31943;51.410;7.564;2022-07-04T03:43:26;100691.19;;;15.67;55.67
46223;BME280;31943;51.410;7.564;2022-07-04T03:45:51;100687.69;;;15.67;55.70
46223;BME280;31943;51.410;7.564;2022-07-04T03:48:17;100687.69;;;15.67;56.38
46223;BME280;31943;51.410;7.564;2022-07-04T03:50:42;100692.06;;;15.65;56.13
46223;BME280;31943;51.410;7.564;2022-07-04T03:53:08;100691.16;;;15.64;56.18
46223;BME280;31943;51.410;7.564;2022-07-04T03:55:35;100698.19;;;15.67;56.03
46223;BME280;31943;51.410;7.564;2022-07-04T03:58:01;100695.53;;;15.70;56.16
46223;BME280;31943;51.410;7.564;2022-07-04T04:00:28;100699.94;;;15.75;56.43
46223;BME280;31943;51.410;7.564;2022-07-04T04:02:53;100699.94;;;15.77;56.28
46223;BME280;31943;51.410;7.564;2022-07-04T04:05:19;100695.56;;;15.76;56.58
46223;BME280;31943;51.410;7.564;2022-07-04T04:07:45;100693.81;;;15.75;56.60
46223;BME280;31943;51.410;7.564;2022-07-04T04:10:11;100694.69;;;15.77;56.37
46223;BME280;31943;51.410;7.564;2022-07-04T04:12:38;100701.66;;;15.79;56.10
46223;BME280;31943;51.410;7.564;2022-07-04T04:15:04;100695.53;;;15.82;56.05
46223;BME280;31943;51.410;7.564;2022-07-04T04:17:30;100698.16;;;15.87;56.07
46223;BME280;31943;51.410;7.564;2022-07-04T04:19:55;100699.88;;;15.91;56.44
46223;BME280;31943;51.410;7.564;2022-07-04T04:22:21;100696.38;;;15.92;56.22
46223;BME280;31943;51.410;7.564;2022-07-04T04:24:46;100695.47;;;15.91;56.59
46223;BME280;31943;51.410;7.564;2022-07-04T04:27:13;100706.00;;;15.91;56.46
46223;BME280;31943;51.410;7.564;2022-07-04T04:29:40;100705.13;;;15.92;56.91
46223;BME280;31943;51.410;7.564;2022-07-04T04:32:06;100698.09;;;15.96;56.69
46223;BME280;31943;51.410;7.564;2022-07-04T04:34:32;100699.84;;;15.98;57.02
46223;BME280;31943;51.410;7.564;2022-07-04T04:36:58;100703.34;;;15.99;57.28
46223;BME280;31943;51.410;7.564;2022-07-04T04:39:23;100698.94;;;16.01;57.58
46223;BME280;31943;51.410;7.564;2022-07-04T04:41:49;100702.47;;;16.01;57.51
46223;BME280;31943;51.410;7.564;2022-07-04T04:44:14;100714.72;;;16.02;57.61
46223;BME280;31943;51.410;7.564;2022-07-04T04:46:42;100720.00;;;16.06;57.65
46223;BME280;31943;51.410;7.564;2022-07-04T04:49:07;100712.97;;;16.08;57.19
46223;BME280;31943;51.410;7.564;2022-07-04T04:51:33;100709.44;;;16.12;57.36
46223;BME280;31943;51.410;7.564;2022-07-04T04:53:59;100711.16;;;16.16;57.21
46223;BME280;31943;51.410;7.564;2022-07-04T04:56:24;100706.75;;;16.18;57.27
46223;BME280;31943;51.410;7.564;2022-07-04T04:58:50;100709.38;;;16.21;57.71
46223;BME280;31943;51.410;7.564;2022-07-04T05:01:15;100711.13;;;16.25;57.10
46223;BME280;31943;51.410;7.564;2022-07-04T05:03:43;100716.34;;;16.31;56.92
46223;BME280;31943;51.410;7.564;2022-07-04T05:06:09;100711.03;;;16.36;56.72
46223;BME280;31943;51.410;7.564;2022-07-04T05:08:35;100711.91;;;16.41;56.54
46223;BME280;31943;51.410;7.564;2022-07-04T05:11:00;100712.75;;;16.45;57.28
46223;BME280;31943;51.410;7.564;2022-07-04T05:13:26;100715.34;;;16.49;56.91
46223;BME280;31943;51.410;7.564;2022-07-04T05:15:51;100706.53;;;16.55;56.68
46223;BME280;31943;51.410;7.564;2022-07-04T05:18:17;100706.53;;;16.56;57.59
46223;BME280;31943;51.410;7.564;2022-07-04T05:20:44;100709.13;;;16.61;57.36
46223;BME280;31943;51.410;7.564;2022-07-04T05:23:09;100716.97;;;16.67;57.11
46223;BME280;31943;51.410;7.564;2022-07-04T05:25:35;100720.41;;;16.74;57.14
46223;BME280;31943;51.410;7.564;2022-07-04T05:28:00;100716.88;;;16.83;57.13
46223;BME280;31943;51.410;7.564;2022-07-04T05:30:26;100717.75;;;16.86;56.75
46223;BME280;31943;51.410;7.564;2022-07-04T05:32:52;100722.94;;;16.94;56.40
46223;BME280;31943;51.410;7.564;2022-07-04T05:35:18;100721.97;;;17.01;56.52
46223;BME280;31943;51.410;7.564;2022-07-04T05:37:45;100723.69;;;17.07;56.26
46223;BME280;31943;51.410;7.564;2022-07-04T05:40:11;100721.00;;;17.14;55.94
46223;BME280;31943;51.410;7.564;2022-07-04T05:42:37;100726.25;;;17.19;55.79
46223;BME280;31943;51.410;7.564;2022-07-04T05:45:03;100722.63;;;17.25;56.46
46223;BME280;31943;51.410;7.564;2022-07-04T05:47:29;100725.25;;;17.28;55.84
46223;BME280;31943;51.410;7.564;2022-07-04T05:49:55;100730.47;;;17.34;56.48
46223;BME280;31943;51.410;7.564;2022-07-04T05:52:21;100726.13;;;17.31;57.49
46223;BME280;31943;51.410;7.564;2022-07-04T05:54:48;100727.00;;;17.29;56.99
46223;BME280;31943;51.410;7.564;2022-07-04T05:57:13;100728.69;;;17.36;56.41
46223;BME280;31943;51.410;7.564;2022-07-04T05:59:39;100730.34;;;17.46;56.38
46223;BME280;31943;51.410;7.564;2022-07-04T06:02:05;100726.81;;;17.49;55.99
46223;BME280;31943;51.410;7.564;2022-07-04T06:04:31;100730.16;;;17.62;56.23
46223;BME280;31943;51.410;7.564;2022-07-04T06:06:56;100725.66;;;17.73;56.14
46223;BME280;31943;51.410;7.564;2022-07-04T06:09:22;100726.44;;;17.86;55.59
46223;BME280;31943;51.410;7.564;2022-07-04T06:11:49;100736.06;;;17.90;56.20
46223;BME280;31943;51.410;7.564;2022-07-04T06:14:15;100733.19;;;18.05;55.90
46223;BME280;31943;51.410;7.564;2022-07-04T06:16:40;100732.09;;;18.23;55.52
46223;BME280;31943;51.410;7.564;2022-07-04T06:19:06;100726.56;;;18.40;55.41
46223;BME280;31943;51.410;7.564;2022-07-04T06:21:32;100722.84;;;18.52;54.62
46223;BME280;31943;51.410;7.564;2022-07-04T06:23:57;100731.41;;;18.68;53.75
46223;BME280;31943;51.410;7.564;2022-07-04T06:26:23;100728.44;;;18.91;52.78
46223;BME280;31943;51.410;7.564;2022-07-04T06:28:50;100721.94;;;19.10;51.88
46223;BME280;31943;51.410;7.564;2022-07-04T06:31:16;100723.34;;;19.30;51.86
46223;BME280;31943;51.410;7.564;2022-07-04T06:33:41;100723.19;;;19.39;51.79
46223;BME280;31943;51.410;7.564;2022-07-04T06:36:07;100726.38;;;19.56;50.90
46223;BME280;31943;51.410;7.564;2022-07-04T06:38:33;100714.63;;;19.73;50.14
46223;BME280;31943;51.410;7.564;2022-07-04T06:40:59;100723.97;;;19.89;49.98
46223;BME280;31943;51.410;7.564;2022-07-04T06:43:25;100720.13;;;20.06;49.19
46223;BME280;31943;51.410;7.564;2022-07-04T06:45:53;100713.66;;;20.19;48.86
46223;BME280;31943;51.410;7.564;2022-07-04T06:48:19;100715.16;;;20.31;48.48
46223;BME280;31943;51.410;7.564;2022-07-04T06:50:45;100711.59;;;20.30;48.68
46223;BME280;31943;51.410;7.564;2022-07-04T06:53:11;100708.88;;;20.35;48.08
46223;BME280;31943;51.410;7.564;2022-07-04T06:55:37;100707.47;;;20.56;47.92
46223;BME280;31943;51.410;7.564;2022-07-04T06:58:03;100715.19;;;20.68;47.99
46223;BME280;31943;51.410;7.564;2022-07-04T07:00:29;100717.72;;;20.73;47.47
46223;BME280;31943;51.410;7.564;2022-07-04T07:02:56;100715.53;;;20.89;47.06
46223;BME280;31943;51.410;7.564;2022-07-04T07:05:22;100706.41;;;21.01;46.42
46223;BME280;31943;51.410;7.564;2022-07-04T07:07:48;100705.47;;;21.03;46.43
46223;BME280;31943;51.410;7.564;2022-07-04T07:10:13;100705.00;;;21.20;45.71
46223;BME280;31943;51.410;7.564;2022-07-04T07:12:39;100703.63;;;21.38;45.84
46223;BME280;31943;51.410;7.564;2022-07-04T07:15:08;100705.88;;;21.55;46.06
46223;BME280;31943;51.410;7.564;2022-07-04T07:17:34;100704.00;;;21.59;44.76
46223;BME280;31943;51.410;7.564;2022-07-04T07:20:02;100704.66;;;21.67;44.60
46223;BME280;31943;51.410;7.564;2022-07-04T07:22:27;100700.94;;;21.72;44.14
46223;BME280;31943;51.410;7.564;2022-07-04T07:24:53;100707.66;;;21.86;44.19
46223;BME280;31943;51.410;7.564;2022-07-04T07:27:19;100707.47;;;21.92;43.64
46223;BME280;31943;51.410;7.564;2022-07-04T07:29:44;100704.47;;;22.03;42.92
46223;BME280;31943;51.410;7.564;2022-07-04T07:32:11;100702.31;;;22.16;42.83
46223;BME280;31943;51.410;7.564;2022-07-04T07:34:37;100708.97;;;22.30;42.08
46223;BME280;31943;51.410;7.564;2022-07-04T07:37:04;100708.72;;;22.38;41.19
46223;BME280;31943;51.410;7.564;2022-07-04T07:39:30;100710.91;;;22.54;41.04
46223;BME280;31943;51.410;7.564;2022-07-04T07:41:55;100700.63;;;22.69;41.07
46223;BME280;31943;51.410;7.564;2022-07-04T07:44:21;100713.09;;;22.67;40.86
46223;BME280;31943;51.410;7.564;2022-07-04T07:46:49;100705.28;;;22.63;40.75
46223;BME280;31943;51.410;7.564;2022-07-04T07:49:15;100704.69;;;22.55;40.22
46223;BME280;31943;51.410;7.564;2022-07-04T07:51:40;100707.34;;;22.55;41.04
46223;BME280;31943;51.410;7.564;2022-07-04T07:54:08;100705.44;;;22.58;40.82
46223;BME280;31943;51.410;7.564;2022-07-04T07:56:34;100696.38;;;22.64;40.74
46223;BME280;31943;51.410;7.564;2022-07-04T07:58:59;100699.34;;;22.81;40.74
46223;BME280;31943;51.410;7.564;2022-07-04T08:01:25;100706.03;;;22.93;39.66
46223;BME280;31943;51.410;7.564;2022-07-04T08:03:51;100691.38;;;23.08;39.25
46223;BME280;31943;51.410;7.564;2022-07-04T08:06:16;100705.19;;;23.19;38.70
46223;BME280;31943;51.410;7.564;2022-07-04T08:08:42;100703.44;;;23.18;38.24
46223;BME280;31943;51.410;7.564;2022-07-04T08:11:10;100709.59;;;22.94;37.85
46223;BME280;31943;51.410;7.564;2022-07-04T08:13:36;100714.69;;;22.73;38.34
46223;BME280;31943;51.410;7.564;2022-07-04T08:16:02;100707.94;;;22.63;38.69
46223;BME280;31943;51.410;7.564;2022-07-04T08:18:28;100708.84;;;22.62;38.03
46223;BME280;31943;51.410;7.564;2022-07-04T08:20:54;100700.63;;;22.69;38.36
46223;BME280;31943;51.410;7.564;2022-07-04T08:23:19;100704.63;;;22.83;37.92
46223;BME280;31943;51.410;7.564;2022-07-04T08:25:45;100707.97;;;22.89;37.54
46223;BME280;31943;51.410;7.564;2022-07-04T08:28:12;100703.56;;;22.88;38.03
46223;BME280;31943;51.410;7.564;2022-07-04T08:30:38;100709.09;;;23.09;37.93
46223;BME280;31943;51.410;7.564;2022-07-04T08:33:04;100707.81;;;23.21;38.50
46223;BME280;31943;51.410;7.564;2022-07-04T08:35:29;100717.31;;;23.28;36.89
46223;BME280;31943;51.410;7.564;2022-07-04T08:37:55;100708.00;;;23.15;37.44
46223;BME280;31943;51.410;7.564;2022-07-04T08:40:21;100709.00;;;23.12;36.80
46223;BME280;31943;51.410;7.564;2022-07-04T08:42:47;100710.47;;;23.21;36.61
46223;BME280;31943;51.410;7.564;2022-07-04T08:45:15;100708.25;;;23.34;37.25
46223;BME280;31943;51.410;7.564;2022-07-04T08:47:42;100699.88;;;23.44;37.33
46223;BME280;31943;51.410;7.564;2022-07-04T08:50:10;100700.81;;;23.67;36.16
46223;BME280;31943;51.410;7.564;2022-07-04T08:52:38;100695.19;;;23.75;35.22
46223;BME280;31943;51.410;7.564;2022-07-04T08:55:05;100690.66;;;23.78;36.11
46223;BME280;31943;51.410;7.564;2022-07-04T08:57:31;100691.47;;;23.80;36.88
46223;BME280;31943;51.410;7.564;2022-07-04T08:59:57;100696.50;;;23.88;36.59
46223;BME280;31943;51.410;7.564;2022-07-04T09:02:26;100688.28;;;23.94;36.08
46223;BME280;31943;51.410;7.564;2022-07-04T09:04:52;100691.50;;;24.02;36.31
46223;BME280;31943;51.410;7.564;2022-07-04T09:07:18;100692.50;;;24.00;36.08
46223;BME280;31943;51.410;7.564;2022-07-04T09:09:44;100697.94;;;23.97;35.76
46223;BME280;31943;51.410;7.564;2022-07-04T09:12:10;100699.22;;;24.10;36.25
46223;BME280;31943;51.410;7.564;2022-07-04T09:14:36;100693.78;;;24.13;35.97
46223;BME280;31943;51.410;7.564;2022-07-04T09:17:03;100691.56;;;24.01;36.33
46223;BME280;31943;51.410;7.564;2022-07-04T09:19:30;100684.50;;;24.00;34.41
46223;BME280;31943;51.410;7.564;2022-07-04T09:22:02;100687.16;;;24.00;35.63
46223;BME280;31943;51.410;7.564;2022-07-04T09:24:43;100691.50;;;24.02;35.44
46223;BME280;31943;51.410;7.564;2022-07-04T09:27:09;100685.94;;;23.85;35.88
46223;BME280;31943;51.410;7.564;2022-07-04T09:29:39;100676.47;;;24.01;36.67
46223;BME280;31943;51.410;7.564;2022-07-04T09:32:24;100687.34;;;24.19;36.34
46223;BME280;31943;51.410;7.564;2022-07-04T09:34:55;100680.56;;;24.32;35.86
46223;BME280;31943;51.410;7.564;2022-07-04T09:37:20;100696.34;;;24.60;36.03
46223;BME280;31943;51.410;7.564;2022-07-04T09:39:46;100691.50;;;24.70;35.72
46223;BME280;31943;51.410;7.564;2022-07-04T09:42:12;100691.50;;;24.70;34.26
46223;BME280;31943;51.410;7.564;2022-07-04T09:44:43;100688.75;;;24.72;35.55
46223;BME280;31943;51.410;7.564;2022-07-04T09:47:19;100689.81;;;24.90;34.24
46223;BME280;31943;51.410;7.564;2022-07-04T09:49:59;100687.44;;;25.02;33.93
46223;BME280;31943;51.410;7.564;2022-07-04T09:52:24;100690.78;;;24.87;33.05
46223;BME280;31943;51.410;7.564;2022-07-04T09:54:50;100689.44;;;24.77;33.00
46223;BME280;31943;51.410;7.564;2022-07-04T09:57:21;100679.53;;;24.58;33.59
46223;BME280;31943;51.410;7.564;2022-07-04T09:59:47;100683.00;;;24.60;34.46
46223;BME280;31943;51.410;7.564;2022-07-04T10:02:13;100686.56;;;24.15;34.36
46223;BME280;31943;51.410;7.564;2022-07-04T10:04:43;100679.41;;;23.70;35.11
46223;BME280;31943;51.410;7.564;2022-07-04T10:07:11;100674.84;;;23.97;35.47
46223;BME280;31943;51.410;7.564;2022-07-04T10:09:37;100674.72;;;24.22;34.64
46223;BME280;31943;51.410;7.564;2022-07-04T10:12:03;100659.41;;;24.50;34.02
46223;BME280;31943;51.410;7.564;2022-07-04T10:14:29;100668.56;;;24.66;34.12
46223;BME280;31943;51.410;7.564;2022-07-04T10:16:55;100673.31;;;24.80;33.42
46223;BME280;31943;51.410;7.564;2022-07-04T10:19:22;100672.72;;;24.94;33.33
46223;BME280;31943;51.410;7.564;2022-07-04T10:21:47;100669.03;;;24.96;33.77
46223;BME280;31943;51.410;7.564;2022-07-04T10:24:16;100670.09;;;25.13;33.74
46223;BME280;31943;51.410;7.564;2022-07-04T10:26:41;100663.47;;;25.23;32.61
46223;BME280;31943;51.410;7.564;2022-07-04T10:29:10;100669.31;;;25.31;32.05
46223;BME280;31943;51.410;7.564;2022-07-04T10:31:36;100675.31;;;25.36;31.78
46223;BME280;31943;51.410;7.564;2022-07-04T10:34:03;100664.44;;;25.60;32.30
46223;BME280;31943;51.410;7.564;2022-07-04T10:36:29;100662.50;;;25.63;31.95
46223;BME280;31943;51.410;7.564;2022-07-04T10:38:55;100658.41;;;25.75;32.67
46223;BME280;31943;51.410;7.564;2022-07-04T10:41:23;100661.19;;;25.93;32.15
46223;BME280;31943;51.410;7.564;2022-07-04T10:43:57;100655.97;;;25.90;30.71
46223;BME280;31943;51.410;7.564;2022-07-04T10:46:28;100653.69;;;25.42;30.95
46223;BME280;31943;51.410;7.564;2022-07-04T10:48:55;100649.84;;;25.48;31.23
46223;BME280;31943;51.410;7.564;2022-07-04T10:51:42;100641.34;;;25.59;32.07
46223;BME280;31943;51.410;7.564;2022-07-04T10:54:11;100646.34;;;25.67;32.75
46223;BME280;31943;51.410;7.564;2022-07-04T10:56:40;100639.19;;;25.67;30.86
46223;BME280;31943;51.410;7.564;2022-07-04T10:59:12;100636.56;;;25.65;31.51
46223;BME280;31943;51.410;7.564;2022-07-04T11:01:38;100635.00;;;25.80;30.95
46223;BME280;31943;51.410;7.564;2022-07-04T11:04:04;100637.63;;;25.82;31.31
46223;BME280;31943;51.410;7.564;2022-07-04T11:06:51;100636.47;;;25.88;30.19
46223;BME280;31943;51.410;7.564;2022-07-04T11:09:18;100632.13;;;25.66;30.43
46223;BME280;31943;51.410;7.564;2022-07-04T11:11:50;100632.91;;;25.68;31.52
46223;BME280;31943;51.410;7.564;2022-07-04T11:14:34;100630.94;;;25.72;31.93
46223;BME280;31943;51.410;7.564;2022-07-04T11:17:00;100638.88;;;25.94;31.83
46223;BME280;31943;51.410;7.564;2022-07-04T11:19:27;100641.16;;;25.82;32.12
46223;BME280;31943;51.410;7.564;2022-07-04T11:21:54;100646.09;;;25.33;31.46
46223;BME280;31943;51.410;7.564;2022-07-04T11:24:20;100634.91;;;25.03;31.98
46223;BME280;31943;51.410;7.564;2022-07-04T11:26:45;100631.59;;;24.77;32.30
46223;BME280;31943;51.410;7.564;2022-07-04T11:29:16;100632.38;;;24.59;32.97
46223;BME280;31943;51.410;7.564;2022-07-04T11:31:43;100633.66;;;24.48;33.34
46223;BME280;31943;51.410;7.564;2022-07-04T11:34:09;100636.59;;;24.85;32.61
46223;BME280;31943;51.410;7.564;2022-07-04T11:36:35;100623.56;;;25.39;31.66
46223;BME280;31943;51.410;7.564;2022-07-04T11:39:05;100630.91;;;25.92;31.67
46223;BME280;31943;51.410;7.564;2022-07-04T11:41:32;100636.56;;;26.22;30.89
46223;BME280;31943;51.410;7.564;2022-07-04T11:44:03;100621.47;;;26.21;30.96
46223;BME280;31943;51.410;7.564;2022-07-04T11:46:30;100618.53;;;26.45;30.29
46223;BME280;31943;51.410;7.564;2022-07-04T11:49:07;100619.69;;;26.58;29.21
46223;BME280;31943;51.410;7.564;2022-07-04T11:51:32;100618.09;;;26.72;28.77
46223;BME280;31943;51.410;7.564;2022-07-04T11:54:03;100613.69;;;26.88;29.73
46223;BME280;31943;51.410;7.564;2022-07-04T11:56:29;100623.13;;;26.95;28.91
46223;BME280;31943;51.410;7.564;2022-07-04T11:58:55;100610.81;;;27.09;29.32
46223;BME280;31943;51.410;7.564;2022-07-04T12:01:26;100615.44;;;26.72;28.69
46223;BME280;31943;51.410;7.564;2022-07-04T12:03:54;100610.22;;;26.86;28.31
46223;BME280;31943;51.410;7.564;2022-07-04T12:06:19;100618.34;;;26.48;29.19
46223;BME280;31943;51.410;7.564;2022-07-04T12:08:46;100620.47;;;26.41;28.71
46223;BME280;31943;51.410;7.564;2022-07-04T12:11:12;100619.03;;;26.71;27.32
46223;BME280;31943;51.410;7.564;2022-07-04T12:13:37;100607.13;;;26.94;26.77
46223;BME280;31943;51.410;7.564;2022-07-04T12:16:11;100607.34;;;27.07;28.11
46223;BME280;31943;51.410;7.564;2022-07-04T12:18:36;100609.22;;;27.22;26.70
46223;BME280;31943;51.410;7.564;2022-07-04T12:21:12;100602.69;;;27.28;27.58
46223;BME280;31943;51.410;7.564;2022-07-04T12:23:38;100601.72;;;26.95;28.12
46223;BME280;31943;51.410;7.564;2022-07-04T12:26:05;100598.69;;;27.01;27.47
46223;BME280;31943;51.410;7.564;2022-07-04T12:28:34;100589.16;;;27.47;26.51
46223;BME280;31943;51.410;7.564;2022-07-04T12:31:00;100594.81;;;27.74;26.83
46223;BME280;31943;51.410;7.564;2022-07-04T12:33:27;100592.72;;;27.95;26.50
46223;BME280;31943;51.410;7.564;2022-07-04T12:35:55;100596.63;;;27.89;25.20
46223;BME280;31943;51.410;7.564;2022-07-04T12:38:33;100582.84;;;27.79;25.85
46223;BME280;31943;51.410;7.564;2022-07-04T12:41:00;100586.72;;;27.91;26.51
46223;BME280;31943;51.410;7.564;2022-07-04T12:43:44;100586.34;;;27.97;27.28
46223;BME280;31943;51.410;7.564;2022-07-04T12:46:11;100585.59;;;28.26;26.59
46223;BME280;31943;51.410;7.564;2022-07-04T12:48:38;100582.69;;;28.61;26.59